createdAt,value
2019-02-20T00:00:10.858Z,98.20
2019-02-20T00:00:44.720Z,98.40
2019-02-20T00:01:22.538Z,98.60
2019-02-20T00:01:55.487Z,98.70
2019-02-20T00:02:28.659Z,98.80
2019-02-20T00:03:01.594Z,98.80
2019-02-20T00:03:34.099Z,98.90
2019-02-20T00:04:06.973Z,99.10
2019-02-20T00:04:39.460Z,99.30
2019-02-20T00:05:12.510Z,99.30
2019-02-20T00:05:44.977Z,99.60
2019-02-20T00:06:17.465Z,99.60
2019-02-20T00:06:50.351Z,99.70
2019-02-20T00:07:23.112Z,99.70
2019-02-20T00:07:55.596Z,99.70
2019-02-20T00:08:28.500Z,99.70
2019-02-20T00:09:00.987Z,99.80
2019-02-20T00:09:33.873Z,99.80
2019-02-20T00:10:06.475Z,99.90
2019-02-20T00:10:39.222Z,99.90
2019-02-20T00:11:11.697Z,99.90
2019-02-20T00:11:44.588Z,99.90
2019-02-20T00:12:17.104Z,99.90
2019-02-20T00:12:49.574Z,99.90
2019-02-20T00:13:22.088Z,99.90
2019-02-20T00:13:54.852Z,99.90
2019-02-20T00:14:28.145Z,99.90
2019-02-20T00:15:01.414Z,99.90
2019-02-20T00:15:33.875Z,99.90
2019-02-20T00:16:06.349Z,99.90
2019-02-20T00:16:39.169Z,99.90
2019-02-20T00:17:11.663Z,99.90
2019-02-20T00:17:44.191Z,99.90
2019-02-20T00:18:16.694Z,99.90
2019-02-20T00:18:49.172Z,99.90
2019-02-20T00:19:21.647Z,99.90
2019-02-20T00:19:54.129Z,99.90
2019-02-20T00:20:26.598Z,99.90
2019-02-20T00:20:59.071Z,99.90
2019-02-20T00:21:31.843Z,99.90
2019-02-20T00:22:05.000Z,99.90
2019-02-20T00:22:40.311Z,99.90
2019-02-20T00:23:11.799Z,99.90
2019-02-20T00:23:44.274Z,99.80
2019-02-20T00:24:17.126Z,99.80
2019-02-20T00:24:50.104Z,99.90
2019-02-20T00:25:22.971Z,99.90
2019-02-20T00:25:55.459Z,99.90
2019-02-20T00:26:28.266Z,99.90
2019-02-20T00:27:01.070Z,99.90
2019-02-20T00:27:33.835Z,99.90
2019-02-20T00:28:06.603Z,99.90
2019-02-20T00:28:39.104Z,99.90
2019-02-20T00:29:11.600Z,99.70
2019-02-20T00:29:44.076Z,99.70
2019-02-20T00:30:16.561Z,99.50
2019-02-20T00:30:49.042Z,99.40
2019-02-20T00:31:21.526Z,99.40
2019-02-20T00:31:53.995Z,99.30
2019-02-20T00:32:26.840Z,98.90
2019-02-20T00:32:59.324Z,98.70
2019-02-20T00:33:31.801Z,98.60
2019-02-20T00:34:04.318Z,98.50
2019-02-20T00:34:37.129Z,98.50
2019-02-20T00:35:09.607Z,98.30
2019-02-20T00:35:42.080Z,98.30
2019-02-20T00:36:15.117Z,98.20
2019-02-20T00:36:47.925Z,98.10
2019-02-20T00:37:20.415Z,98.20
2019-02-20T00:37:52.894Z,98.10
2019-02-20T00:38:25.369Z,97.90
2019-02-20T00:38:58.142Z,97.80
2019-02-20T00:39:30.639Z,97.70
2019-02-20T00:40:03.436Z,97.50
2019-02-20T00:40:35.924Z,97.30
2019-02-20T00:41:08.739Z,97.30
2019-02-20T00:41:41.202Z,97.20
2019-02-20T00:42:13.709Z,97.20
2019-02-20T00:42:46.727Z,97.10
2019-02-20T00:43:19.208Z,97.10
2019-02-20T00:44:04.560Z,97.00
2019-02-20T00:44:56.580Z,97.00
2019-02-20T00:45:47.139Z,97.00
2019-02-20T00:46:29.059Z,96.80
2019-02-20T00:47:22.595Z,96.70
2019-02-20T00:48:13.657Z,96.60
2019-02-20T00:49:00.078Z,96.60
2019-02-20T00:49:36.522Z,96.40
2019-02-20T00:50:09.018Z,96.40
2019-02-20T00:50:41.603Z,96.50
2019-02-20T00:51:33.573Z,96.50
2019-02-20T00:52:49.990Z,96.40
2019-02-20T00:53:26.116Z,96.30
2019-02-20T00:54:01.817Z,96.40
2019-02-20T00:54:34.300Z,96.10
2019-02-20T00:55:07.640Z,96.10
2019-02-20T00:55:40.476Z,96.20
2019-02-20T00:56:13.346Z,96.20
2019-02-20T00:56:45.843Z,96.30
2019-02-20T00:57:18.676Z,96.20
2019-02-20T00:57:51.162Z,96.30
2019-02-20T00:58:23.648Z,96.30
2019-02-20T00:58:56.113Z,96.30
2019-02-20T00:59:28.613Z,96.40
2019-02-20T01:00:02.060Z,96.40
2019-02-20T01:00:34.841Z,96.30
2019-02-20T01:01:07.849Z,96.30
2019-02-20T01:01:40.323Z,96.30
2019-02-20T01:02:12.799Z,96.20
2019-02-20T01:02:45.631Z,96.00
2019-02-20T01:03:18.379Z,95.90
2019-02-20T01:03:50.868Z,95.80
2019-02-20T01:04:23.338Z,95.80
2019-02-20T01:04:55.818Z,95.90
2019-02-20T01:05:28.648Z,95.90
2019-02-20T01:06:01.128Z,96.20
2019-02-20T01:06:33.648Z,95.80
2019-02-20T01:07:06.782Z,95.80
2019-02-20T01:07:39.279Z,95.70
2019-02-20T01:08:12.086Z,95.70
2019-02-20T01:08:44.971Z,95.90
2019-02-20T01:09:18.139Z,96.00
2019-02-20T01:09:50.968Z,96.00
2019-02-20T01:10:23.455Z,96.10
2019-02-20T01:10:56.410Z,95.90
2019-02-20T01:11:28.903Z,95.80
2019-02-20T01:12:01.758Z,95.90
2019-02-20T01:12:34.242Z,95.90
2019-02-20T01:13:07.054Z,95.90
2019-02-20T01:13:39.548Z,95.70
2019-02-20T01:14:12.026Z,95.60
2019-02-20T01:14:44.504Z,95.60
2019-02-20T01:15:16.983Z,95.60
2019-02-20T01:15:49.515Z,95.70
2019-02-20T01:16:21.948Z,95.80
2019-02-20T01:16:54.433Z,95.90
2019-02-20T01:17:27.702Z,95.90
2019-02-20T01:18:00.187Z,96.00
2019-02-20T01:18:33.035Z,96.20
2019-02-20T01:19:05.510Z,96.10
2019-02-20T01:19:37.990Z,96.10
2019-02-20T01:20:10.568Z,96.10
2019-02-20T01:20:43.032Z,96.00
2019-02-20T01:21:15.519Z,96.00
2019-02-20T01:21:48.311Z,96.10
2019-02-20T01:22:20.782Z,96.30
2019-02-20T01:22:59.645Z,96.30
2019-02-20T01:23:28.094Z,96.20
2019-02-20T01:24:00.572Z,96.10
2019-02-20T01:24:33.059Z,96.20
2019-02-20T01:25:05.577Z,96.20
2019-02-20T01:25:38.430Z,96.10
2019-02-20T01:26:10.916Z,96.00
2019-02-20T01:26:43.408Z,96.00
2019-02-20T01:27:16.515Z,96.10
2019-02-20T01:27:48.973Z,96.00
2019-02-20T01:28:21.796Z,96.00
2019-02-20T01:28:54.275Z,96.10
2019-02-20T01:29:27.058Z,96.10
2019-02-20T01:29:59.525Z,96.20
2019-02-20T01:30:32.708Z,96.20
2019-02-20T01:31:05.466Z,96.30
2019-02-20T01:31:38.235Z,96.30
2019-02-20T01:32:10.864Z,96.30
2019-02-20T01:32:43.739Z,96.20
2019-02-20T01:33:16.645Z,96.30
2019-02-20T01:33:49.456Z,96.50
2019-02-20T01:34:21.918Z,96.60
2019-02-20T01:34:54.397Z,96.60
2019-02-20T01:35:27.197Z,96.70
2019-02-20T01:36:00.035Z,96.60
2019-02-20T01:36:32.520Z,96.50
2019-02-20T01:37:05.000Z,96.70
2019-02-20T01:37:37.467Z,96.50
2019-02-20T01:38:09.946Z,96.60
2019-02-20T01:38:42.436Z,96.70
2019-02-20T01:39:15.303Z,96.70
2019-02-20T01:39:49.443Z,96.80
2019-02-20T01:40:22.464Z,96.90
2019-02-20T01:40:55.054Z,96.90
2019-02-20T01:41:27.527Z,96.90
2019-02-20T01:42:00.016Z,96.70
2019-02-20T01:42:32.490Z,96.60
2019-02-20T01:43:04.968Z,96.60
2019-02-20T01:43:37.434Z,96.60
2019-02-20T01:44:10.270Z,96.60
2019-02-20T01:44:42.770Z,96.70
2019-02-20T01:45:15.626Z,96.70
2019-02-20T01:45:48.116Z,96.80
2019-02-20T01:46:21.023Z,96.80
2019-02-20T01:46:53.501Z,96.80
2019-02-20T01:47:26.909Z,96.80
2019-02-20T01:47:59.401Z,96.80
2019-02-20T01:48:31.874Z,96.80
2019-02-20T01:49:04.338Z,96.80
2019-02-20T01:49:37.118Z,96.70
2019-02-20T01:50:10.168Z,96.60
2019-02-20T01:50:42.977Z,96.60
2019-02-20T01:51:15.436Z,96.70
2019-02-20T01:51:47.922Z,96.60
2019-02-20T01:52:20.436Z,96.60
2019-02-20T01:52:53.498Z,96.60
2019-02-20T01:53:26.303Z,96.80
2019-02-20T01:53:58.767Z,96.90
2019-02-20T01:54:31.250Z,97.00
2019-02-20T01:55:04.323Z,97.10
2019-02-20T01:55:36.833Z,97.10
2019-02-20T01:56:09.709Z,97.40
2019-02-20T01:56:42.700Z,97.60
2019-02-20T01:57:15.466Z,97.60
2019-02-20T01:57:48.395Z,97.60
2019-02-20T01:58:20.994Z,97.70
2019-02-20T01:58:53.898Z,97.80
2019-02-20T01:59:26.790Z,97.80
2019-02-20T01:59:59.724Z,97.90
2019-02-20T02:00:32.201Z,97.90
2019-02-20T02:01:04.767Z,98.00
2019-02-20T02:01:37.891Z,97.90
2019-02-20T02:02:10.385Z,97.90
2019-02-20T02:02:42.851Z,97.90
2019-02-20T02:03:15.322Z,97.90
2019-02-20T02:03:47.830Z,97.70
2019-02-20T02:04:20.634Z,97.60
2019-02-20T02:04:53.114Z,97.50
2019-02-20T02:05:26.381Z,97.40
2019-02-20T02:05:58.854Z,97.20
2019-02-20T02:06:31.352Z,97.20
2019-02-20T02:07:03.831Z,97.10
2019-02-20T02:07:36.334Z,97.10
2019-02-20T02:08:08.814Z,97.10
2019-02-20T02:08:41.331Z,97.10
2019-02-20T02:09:14.148Z,97.10
2019-02-20T02:09:46.989Z,97.10
2019-02-20T02:10:19.472Z,97.10
2019-02-20T02:10:51.956Z,97.10
2019-02-20T02:11:24.767Z,97.10
2019-02-20T02:11:57.290Z,97.10
2019-02-20T02:12:30.411Z,97.10
2019-02-20T02:13:03.206Z,96.90
2019-02-20T02:13:36.498Z,96.90
2019-02-20T02:14:09.332Z,97.00
2019-02-20T02:14:41.798Z,97.10
2019-02-20T02:15:20.556Z,97.00
2019-02-20T02:15:49.420Z,97.00
2019-02-20T02:16:21.898Z,97.10
2019-02-20T02:16:54.384Z,96.90
2019-02-20T02:17:26.882Z,97.00
2019-02-20T02:17:59.366Z,96.90
2019-02-20T02:18:31.853Z,96.80
2019-02-20T02:19:04.614Z,96.70
2019-02-20T02:19:37.086Z,96.70
2019-02-20T02:20:09.878Z,96.80
2019-02-20T02:20:42.353Z,96.70
2019-02-20T02:21:15.117Z,96.70
2019-02-20T02:21:47.591Z,96.60
2019-02-20T02:22:20.758Z,96.70
2019-02-20T02:22:53.261Z,96.70
2019-02-20T02:23:25.727Z,96.70
2019-02-20T02:23:58.202Z,96.70
2019-02-20T02:24:30.680Z,96.80
2019-02-20T02:25:03.339Z,96.70
2019-02-20T02:25:36.438Z,96.70
2019-02-20T02:26:11.045Z,96.80
2019-02-20T02:26:43.615Z,96.90
2019-02-20T02:27:16.561Z,96.70
2019-02-20T02:27:49.352Z,96.60
2019-02-20T02:28:21.866Z,96.70
2019-02-20T02:28:54.350Z,96.70
2019-02-20T02:29:26.822Z,96.60
2019-02-20T02:29:59.285Z,96.50
2019-02-20T02:30:31.759Z,96.50
2019-02-20T02:31:04.243Z,96.50
2019-02-20T02:31:36.739Z,96.60
2019-02-20T02:32:10.093Z,96.60
2019-02-20T02:32:42.553Z,96.60
2019-02-20T02:33:15.021Z,96.50
2019-02-20T02:33:47.984Z,96.60
2019-02-20T02:34:20.791Z,96.70
2019-02-20T02:34:54.108Z,96.60
2019-02-20T02:35:26.589Z,96.70
2019-02-20T02:35:59.412Z,96.70
2019-02-20T02:36:31.881Z,96.70
2019-02-20T02:37:04.386Z,96.80
2019-02-20T02:37:37.541Z,96.90
2019-02-20T02:38:10.307Z,96.80
2019-02-20T02:38:43.590Z,96.80
2019-02-20T02:39:16.488Z,96.90
2019-02-20T02:39:48.968Z,96.80
2019-02-20T02:40:21.480Z,96.70
2019-02-20T02:40:54.356Z,96.90
2019-02-20T02:41:26.822Z,96.80
2019-02-20T02:41:59.725Z,96.80
2019-02-20T02:42:32.552Z,96.80
2019-02-20T02:43:05.020Z,96.70
2019-02-20T02:43:37.875Z,96.70
2019-02-20T02:44:10.944Z,96.70
2019-02-20T02:44:44.135Z,96.60
2019-02-20T02:45:16.624Z,96.60
2019-02-20T02:45:49.373Z,96.50
2019-02-20T02:46:21.872Z,96.40
2019-02-20T02:46:54.647Z,96.20
2019-02-20T02:47:27.122Z,96.00
2019-02-20T02:47:59.961Z,95.80
2019-02-20T02:48:33.406Z,95.90
2019-02-20T02:49:05.878Z,95.80
2019-02-20T02:49:38.363Z,95.90
2019-02-20T02:50:10.903Z,95.90
2019-02-20T02:50:43.658Z,95.90
2019-02-20T02:51:16.755Z,95.90
2019-02-20T02:51:49.662Z,96.10
2019-02-20T02:52:22.138Z,96.40
2019-02-20T02:52:54.614Z,96.80
2019-02-20T02:53:30.629Z,97.40
2019-02-20T02:54:01.972Z,97.70
2019-02-20T02:54:34.745Z,97.90
2019-02-20T02:55:07.219Z,98.30
2019-02-20T02:55:39.723Z,98.40
2019-02-20T02:56:12.687Z,98.50
2019-02-20T02:56:45.748Z,98.80
2019-02-20T02:57:18.211Z,99.00
2019-02-20T02:57:50.682Z,99.20
2019-02-20T02:58:23.169Z,99.30
2019-02-20T02:58:55.663Z,99.40
2019-02-20T02:59:28.500Z,99.50
2019-02-20T03:00:00.974Z,99.70
2019-02-20T03:00:33.457Z,99.80
2019-02-20T03:01:06.587Z,99.90
2019-02-20T03:01:39.412Z,99.90
2019-02-20T03:02:11.889Z,99.90
2019-02-20T03:02:44.728Z,99.90
2019-02-20T03:03:17.904Z,99.90
2019-02-20T03:03:50.362Z,99.90
2019-02-20T03:04:22.828Z,99.90
2019-02-20T03:04:55.326Z,99.90
2019-02-20T03:05:27.803Z,99.90
2019-02-20T03:06:00.889Z,99.90
2019-02-20T03:06:33.392Z,99.90
2019-02-20T03:07:06.135Z,99.90
2019-02-20T03:07:38.955Z,99.90
2019-02-20T03:08:11.480Z,99.90
2019-02-20T03:08:43.911Z,99.90
2019-02-20T03:09:16.377Z,99.90
2019-02-20T03:09:48.883Z,99.90
2019-02-20T03:10:21.372Z,99.90
2019-02-20T03:10:53.843Z,99.90
2019-02-20T03:11:26.623Z,99.90
2019-02-20T03:11:59.140Z,99.90
2019-02-20T03:12:31.625Z,99.90
2019-02-20T03:13:04.089Z,99.90
2019-02-20T03:13:36.922Z,99.90
2019-02-20T03:14:09.392Z,99.90
2019-02-20T03:14:41.859Z,99.90
2019-02-20T03:15:14.735Z,99.90
2019-02-20T03:15:47.240Z,99.90
2019-02-20T03:16:19.717Z,99.70
2019-02-20T03:16:52.193Z,99.70
2019-02-20T03:17:24.983Z,99.50
2019-02-20T03:17:57.758Z,99.20
2019-02-20T03:18:30.752Z,99.00
2019-02-20T03:19:03.236Z,98.90
2019-02-20T03:19:35.694Z,98.90
2019-02-20T03:20:08.197Z,98.80
2019-02-20T03:20:40.654Z,98.90
2019-02-20T03:21:13.131Z,98.90
2019-02-20T03:21:45.609Z,98.80
2019-02-20T03:22:18.075Z,98.80
2019-02-20T03:22:50.584Z,98.90
2019-02-20T03:23:23.077Z,99.00
2019-02-20T03:23:55.847Z,99.00
2019-02-20T03:24:28.317Z,98.90
2019-02-20T03:25:01.135Z,98.70
2019-02-20T03:25:33.599Z,98.60
2019-02-20T03:26:06.081Z,98.70
2019-02-20T03:26:38.549Z,98.60
2019-02-20T03:27:11.041Z,98.60
2019-02-20T03:27:43.856Z,98.60
2019-02-20T03:28:16.369Z,98.70
2019-02-20T03:28:48.879Z,98.80
2019-02-20T03:29:21.700Z,98.80
2019-02-20T03:29:54.179Z,98.80
2019-02-20T03:30:27.054Z,98.80
2019-02-20T03:30:59.547Z,98.90
2019-02-20T03:31:32.342Z,98.80
2019-02-20T03:32:04.849Z,98.70
2019-02-20T03:32:37.340Z,98.70
2019-02-20T03:33:10.499Z,98.70
2019-02-20T03:33:43.024Z,98.40
2019-02-20T03:34:16.000Z,98.40
2019-02-20T03:34:48.455Z,98.30
2019-02-20T03:35:20.957Z,98.40
2019-02-20T03:35:53.418Z,98.60
2019-02-20T03:36:26.235Z,98.40
2019-02-20T03:36:59.076Z,98.30
2019-02-20T03:37:31.564Z,98.10
2019-02-20T03:38:04.048Z,98.10
2019-02-20T03:38:37.144Z,98.20
2019-02-20T03:39:09.652Z,98.30
2019-02-20T03:39:42.114Z,98.30
2019-02-20T03:40:14.898Z,98.20
2019-02-20T03:40:47.410Z,98.30
2019-02-20T03:41:19.892Z,98.30
2019-02-20T03:41:52.782Z,98.40
2019-02-20T03:42:25.567Z,98.50
2019-02-20T03:42:58.336Z,98.60
2019-02-20T03:43:30.801Z,98.70
2019-02-20T03:44:03.582Z,98.80
2019-02-20T03:44:36.092Z,98.60
2019-02-20T03:45:09.021Z,98.50
2019-02-20T03:45:41.502Z,98.50
2019-02-20T03:46:14.483Z,98.60
2019-02-20T03:46:46.951Z,98.50
2019-02-20T03:47:20.275Z,98.40
2019-02-20T03:47:53.254Z,98.20
2019-02-20T03:48:26.102Z,98.00
2019-02-20T03:48:59.188Z,97.90
2019-02-20T03:49:31.659Z,97.90
2019-02-20T03:50:05.036Z,97.80
2019-02-20T03:50:37.504Z,97.70
2019-02-20T03:51:09.988Z,97.60
2019-02-20T03:51:42.507Z,97.60
2019-02-20T03:52:15.233Z,97.40
2019-02-20T03:52:48.517Z,97.30
2019-02-20T03:53:21.356Z,97.50
2019-02-20T03:53:54.533Z,97.60
2019-02-20T03:54:27.384Z,97.70
2019-02-20T03:54:59.984Z,97.50
2019-02-20T03:55:33.217Z,97.60
2019-02-20T03:56:05.703Z,97.70
2019-02-20T03:56:38.507Z,97.70
2019-02-20T03:57:11.294Z,97.60
2019-02-20T03:57:43.771Z,97.60
2019-02-20T03:58:16.725Z,97.40
2019-02-20T03:58:49.622Z,97.10
2019-02-20T03:59:22.110Z,97.10
2019-02-20T03:59:55.808Z,97.10
2019-02-20T04:00:28.698Z,97.20
2019-02-20T04:01:01.202Z,97.20
2019-02-20T04:01:53.147Z,97.00
2019-02-20T04:02:25.991Z,97.10
2019-02-20T04:02:58.471Z,97.10
2019-02-20T04:03:30.949Z,97.10
2019-02-20T04:04:03.428Z,97.10
2019-02-20T04:04:35.908Z,96.70
2019-02-20T04:05:08.712Z,96.70
2019-02-20T04:05:41.195Z,96.80
2019-02-20T04:06:14.043Z,96.70
2019-02-20T04:06:46.666Z,96.50
2019-02-20T04:07:19.127Z,96.40
2019-02-20T04:07:52.019Z,96.40
2019-02-20T04:08:24.863Z,96.40
2019-02-20T04:08:57.397Z,96.40
2019-02-20T04:09:29.866Z,96.40
2019-02-20T04:10:02.346Z,96.30
2019-02-20T04:10:35.426Z,96.30
2019-02-20T04:11:07.916Z,96.30
2019-02-20T04:11:40.552Z,96.00
2019-02-20T04:12:13.027Z,96.10
2019-02-20T04:12:45.516Z,96.00
2019-02-20T04:13:18.011Z,95.90
2019-02-20T04:13:50.847Z,95.70
2019-02-20T04:14:23.609Z,95.50
2019-02-20T04:14:56.354Z,95.30
2019-02-20T04:15:29.031Z,95.20
2019-02-20T04:16:01.511Z,95.20
2019-02-20T04:16:34.287Z,95.10
2019-02-20T04:17:07.074Z,95.10
2019-02-20T04:17:39.556Z,95.00
2019-02-20T04:18:12.056Z,95.10
2019-02-20T04:18:44.531Z,95.20
2019-02-20T04:19:17.020Z,95.10
2019-02-20T04:19:49.520Z,95.00
2019-02-20T04:20:22.013Z,95.00
2019-02-20T04:20:54.765Z,95.00
2019-02-20T04:21:27.551Z,95.00
2019-02-20T04:22:00.031Z,95.10
2019-02-20T04:22:32.942Z,95.30
2019-02-20T04:23:05.432Z,95.40
2019-02-20T04:23:37.902Z,95.80
2019-02-20T04:24:10.672Z,95.70
2019-02-20T04:24:43.498Z,95.50
2019-02-20T04:25:15.970Z,95.50
2019-02-20T04:25:48.456Z,95.70
2019-02-20T04:26:21.335Z,95.80
2019-02-20T04:26:54.407Z,95.90
2019-02-20T04:27:26.884Z,96.00
2019-02-20T04:27:59.392Z,95.90
2019-02-20T04:28:32.278Z,95.90
2019-02-20T04:29:05.076Z,96.00
2019-02-20T04:29:37.938Z,96.00
2019-02-20T04:30:10.811Z,95.90
2019-02-20T04:30:43.402Z,95.80
2019-02-20T04:31:15.904Z,95.90
2019-02-20T04:31:48.744Z,95.80
2019-02-20T04:32:21.208Z,95.80
2019-02-20T04:32:53.691Z,95.80
2019-02-20T04:33:26.199Z,95.70
2019-02-20T04:33:59.049Z,95.80
2019-02-20T04:34:32.249Z,95.80
2019-02-20T04:35:05.239Z,95.80
2019-02-20T04:35:38.013Z,95.80
2019-02-20T04:36:10.507Z,95.90
2019-02-20T04:36:42.989Z,95.90
2019-02-20T04:37:15.499Z,95.90
2019-02-20T04:37:48.372Z,95.90
2019-02-20T04:38:20.856Z,96.00
2019-02-20T04:38:53.773Z,95.90
2019-02-20T04:39:26.537Z,95.90
2019-02-20T04:39:59.017Z,96.00
2019-02-20T04:40:31.504Z,95.90
2019-02-20T04:41:04.264Z,95.70
2019-02-20T04:41:37.025Z,95.70
2019-02-20T04:42:09.868Z,95.70
2019-02-20T04:42:42.365Z,95.90
2019-02-20T04:43:14.827Z,95.80
2019-02-20T04:43:47.681Z,95.70
2019-02-20T04:44:20.543Z,95.70
2019-02-20T04:44:53.300Z,95.80
2019-02-20T04:45:25.786Z,95.80
2019-02-20T04:45:58.650Z,95.90
2019-02-20T04:46:31.153Z,96.10
2019-02-20T04:47:03.965Z,96.10
2019-02-20T04:47:37.085Z,96.20
2019-02-20T04:48:09.585Z,96.10
2019-02-20T04:48:42.368Z,96.20
2019-02-20T04:49:14.864Z,96.20
2019-02-20T04:49:47.645Z,96.10
2019-02-20T04:50:20.402Z,96.00
2019-02-20T04:50:52.898Z,96.00
2019-02-20T04:51:25.388Z,96.10
2019-02-20T04:51:57.854Z,96.20
2019-02-20T04:52:30.340Z,96.30
2019-02-20T04:53:02.824Z,96.20
2019-02-20T04:53:35.301Z,96.30
2019-02-20T04:54:13.276Z,96.30
2019-02-20T04:54:42.077Z,96.20
2019-02-20T04:55:15.147Z,95.90
2019-02-20T04:55:47.627Z,96.00
2019-02-20T04:56:20.103Z,96.00
2019-02-20T04:56:52.603Z,96.00
2019-02-20T04:57:25.085Z,95.80
2019-02-20T04:58:29.434Z,95.70
2019-02-20T04:59:01.935Z,95.70
2019-02-20T04:59:34.428Z,95.80
2019-02-20T05:00:08.987Z,95.70
2019-02-20T05:00:42.128Z,95.60
2019-02-20T05:01:14.592Z,95.60
2019-02-20T05:01:47.077Z,95.40
2019-02-20T05:02:20.203Z,95.30
2019-02-20T05:02:52.679Z,95.30
2019-02-20T05:03:25.162Z,95.50
2019-02-20T05:03:57.641Z,95.50
2019-02-20T05:04:30.114Z,95.50
2019-02-20T05:05:02.595Z,95.60
2019-02-20T05:05:35.082Z,95.50
2019-02-20T05:06:07.967Z,95.50
2019-02-20T05:06:40.462Z,95.60
2019-02-20T05:07:13.395Z,95.60
2019-02-20T05:07:45.867Z,95.70
2019-02-20T05:08:18.360Z,95.70
2019-02-20T05:08:50.856Z,95.80
2019-02-20T05:09:23.946Z,95.80
2019-02-20T05:09:56.432Z,95.80
2019-02-20T05:10:28.901Z,95.80
2019-02-20T05:11:01.382Z,95.70
2019-02-20T05:11:33.940Z,95.80
2019-02-20T05:12:06.418Z,95.70
2019-02-20T05:12:38.916Z,95.80
2019-02-20T05:13:11.390Z,95.70
2019-02-20T05:13:44.232Z,95.70
2019-02-20T05:14:16.715Z,95.90
2019-02-20T05:14:49.206Z,95.90
2019-02-20T05:15:21.692Z,96.10
2019-02-20T05:15:54.161Z,95.90
2019-02-20T05:16:26.797Z,95.90
2019-02-20T05:16:59.321Z,96.00
2019-02-20T05:17:32.203Z,96.00
2019-02-20T05:18:04.678Z,96.00
2019-02-20T05:18:37.529Z,96.00
2019-02-20T05:19:10.026Z,96.10
2019-02-20T05:19:42.512Z,96.00
2019-02-20T05:20:15.282Z,95.90
2019-02-20T05:20:47.785Z,96.00
2019-02-20T05:21:20.269Z,95.80
2019-02-20T05:21:52.754Z,95.80
2019-02-20T05:22:25.553Z,95.70
2019-02-20T05:22:58.683Z,95.70
2019-02-20T05:23:31.172Z,95.80
2019-02-20T05:24:03.660Z,95.70
2019-02-20T05:24:36.139Z,95.50
2019-02-20T05:25:08.625Z,95.60
2019-02-20T05:25:41.137Z,95.50
2019-02-20T05:26:13.880Z,95.60
2019-02-20T05:26:46.347Z,95.60
2019-02-20T05:27:18.840Z,95.50
2019-02-20T05:27:51.634Z,95.60
2019-02-20T05:28:24.112Z,95.70
2019-02-20T05:28:56.591Z,95.70
2019-02-20T05:29:29.067Z,95.70
2019-02-20T05:30:01.940Z,95.90
2019-02-20T05:30:34.726Z,95.90
2019-02-20T05:31:07.556Z,96.30
2019-02-20T05:31:40.394Z,96.20
2019-02-20T05:32:12.883Z,96.30
2019-02-20T05:32:45.356Z,96.40
2019-02-20T05:33:18.176Z,96.30
2019-02-20T05:33:51.389Z,96.40
2019-02-20T05:34:24.393Z,96.50
2019-02-20T05:34:56.895Z,96.60
2019-02-20T05:35:29.603Z,96.60
2019-02-20T05:36:02.080Z,96.40
2019-02-20T05:36:34.833Z,96.50
2019-02-20T05:37:07.465Z,96.70
2019-02-20T05:37:39.903Z,96.40
2019-02-20T05:38:12.379Z,96.40
2019-02-20T05:38:44.915Z,96.50
2019-02-20T05:39:17.964Z,96.60
2019-02-20T05:39:50.564Z,96.70
2019-02-20T05:40:23.064Z,96.80
2019-02-20T05:40:55.555Z,96.80
2019-02-20T05:41:28.381Z,96.80
2019-02-20T05:42:01.214Z,96.90
2019-02-20T05:42:34.125Z,97.00
2019-02-20T05:43:07.403Z,97.10
2019-02-20T05:43:39.915Z,97.20
2019-02-20T05:44:12.419Z,97.20
2019-02-20T05:44:44.921Z,97.20
2019-02-20T05:45:17.772Z,97.20
2019-02-20T05:45:50.254Z,97.10
2019-02-20T05:46:22.757Z,97.20
2019-02-20T05:46:55.246Z,97.30
2019-02-20T05:47:28.167Z,97.20
2019-02-20T05:48:00.977Z,97.10
2019-02-20T05:48:33.479Z,97.10
2019-02-20T05:49:05.960Z,97.10
2019-02-20T05:49:39.172Z,97.00
2019-02-20T05:50:11.808Z,97.00
2019-02-20T05:50:44.305Z,96.90
2019-02-20T05:51:17.101Z,96.90
2019-02-20T05:51:49.941Z,96.80
2019-02-20T05:52:28.632Z,96.70
2019-02-20T05:53:01.487Z,96.80
2019-02-20T05:53:34.310Z,96.80
2019-02-20T05:54:07.062Z,96.60
2019-02-20T05:54:39.920Z,96.70
2019-02-20T05:55:12.452Z,96.70
2019-02-20T05:55:44.927Z,96.80
2019-02-20T05:56:17.687Z,96.70
2019-02-20T05:56:50.167Z,96.70
2019-02-20T05:57:22.670Z,96.70
2019-02-20T05:58:00.606Z,96.70
2019-02-20T05:58:53.798Z,96.70
2019-02-20T05:59:28.938Z,96.70
2019-02-20T06:00:01.420Z,96.70
2019-02-20T06:00:33.930Z,96.70
2019-02-20T06:01:17.531Z,96.60
2019-02-20T06:01:50.086Z,96.60
2019-02-20T06:02:22.583Z,96.60
2019-02-20T06:02:55.537Z,96.70
2019-02-20T06:03:28.720Z,96.80
2019-02-20T06:04:01.355Z,96.80
2019-02-20T06:04:33.975Z,96.60
2019-02-20T06:05:06.570Z,96.50
2019-02-20T06:05:39.083Z,96.50
2019-02-20T06:06:11.567Z,96.60
2019-02-20T06:06:44.042Z,96.70
2019-02-20T06:07:16.860Z,96.80
2019-02-20T06:07:49.332Z,96.70
2019-02-20T06:08:22.155Z,96.80
2019-02-20T06:08:54.955Z,96.70
2019-02-20T06:09:27.436Z,96.60
2019-02-20T06:09:59.911Z,96.30
2019-02-20T06:10:32.396Z,96.20
2019-02-20T06:11:14.486Z,96.30
2019-02-20T06:11:39.255Z,96.20
2019-02-20T06:12:12.244Z,96.10
2019-02-20T06:12:44.728Z,95.90
2019-02-20T06:13:17.221Z,95.80
2019-02-20T06:13:49.980Z,95.80
2019-02-20T06:14:22.472Z,95.80
2019-02-20T06:14:55.226Z,95.90
2019-02-20T06:15:28.304Z,95.90
2019-02-20T06:16:00.812Z,95.80
2019-02-20T06:16:33.299Z,95.80
2019-02-20T06:17:09.752Z,95.90
2019-02-20T06:17:42.230Z,96.00
2019-02-20T06:18:14.710Z,96.10
2019-02-20T06:18:47.543Z,96.00
2019-02-20T06:19:20.020Z,96.00
2019-02-20T06:19:52.879Z,96.00
2019-02-20T06:20:25.367Z,95.90
2019-02-20T06:20:58.126Z,96.20
2019-02-20T06:21:30.634Z,96.00
2019-02-20T06:22:03.403Z,95.90
2019-02-20T06:22:35.899Z,95.80
2019-02-20T06:23:08.381Z,95.80
2019-02-20T06:23:41.135Z,95.70
2019-02-20T06:24:13.634Z,95.80
2019-02-20T06:24:46.131Z,95.80
2019-02-20T06:25:19.179Z,95.70
2019-02-20T06:25:51.686Z,95.60
2019-02-20T06:26:24.137Z,95.40
2019-02-20T06:26:56.619Z,95.40
2019-02-20T06:27:29.148Z,95.50
2019-02-20T06:28:01.933Z,95.50
2019-02-20T06:28:34.407Z,95.50
2019-02-20T06:29:06.882Z,95.40
2019-02-20T06:29:39.651Z,95.20
2019-02-20T06:30:12.124Z,95.20
2019-02-20T06:30:44.593Z,95.20
2019-02-20T06:31:17.082Z,95.20
2019-02-20T06:31:49.849Z,95.20
2019-02-20T06:32:24.077Z,95.30
2019-02-20T06:32:56.634Z,95.40
2019-02-20T06:33:29.127Z,95.40
2019-02-20T06:34:01.613Z,95.40
2019-02-20T06:34:34.086Z,95.40
2019-02-20T06:35:06.930Z,95.50
2019-02-20T06:35:39.414Z,95.50
2019-02-20T06:36:11.899Z,95.50
2019-02-20T06:36:44.379Z,95.80
2019-02-20T06:37:17.161Z,95.70
2019-02-20T06:37:50.226Z,95.70
2019-02-20T06:38:22.755Z,95.70
2019-02-20T06:38:55.508Z,95.70
2019-02-20T06:39:27.978Z,95.50
2019-02-20T06:40:00.486Z,95.50
2019-02-20T06:40:33.216Z,95.70
2019-02-20T06:41:06.396Z,95.80
2019-02-20T06:41:39.581Z,95.80
2019-02-20T06:42:12.778Z,95.90
2019-02-20T06:42:45.662Z,95.90
2019-02-20T06:43:18.149Z,95.80
2019-02-20T06:43:50.967Z,95.80
2019-02-20T06:44:23.435Z,95.90
2019-02-20T06:44:56.182Z,96.00
2019-02-20T06:45:28.654Z,96.10
2019-02-20T06:46:01.134Z,96.10
2019-02-20T06:46:33.624Z,96.00
2019-02-20T06:47:06.098Z,95.90
2019-02-20T06:47:38.578Z,96.00
2019-02-20T06:48:11.059Z,96.00
2019-02-20T06:48:43.550Z,95.80
2019-02-20T06:49:16.439Z,95.70
2019-02-20T06:49:49.205Z,95.70
2019-02-20T06:50:21.686Z,95.60
2019-02-20T06:50:54.176Z,95.50
2019-02-20T06:51:26.646Z,95.30
2019-02-20T06:51:59.131Z,95.30
2019-02-20T06:52:31.909Z,95.20
2019-02-20T06:53:04.660Z,95.30
2019-02-20T06:53:37.168Z,95.30
2019-02-20T06:54:09.652Z,95.40
2019-02-20T06:54:42.456Z,95.40
2019-02-20T06:55:15.436Z,95.50
2019-02-20T06:55:48.205Z,95.50
2019-02-20T06:56:20.982Z,95.50
2019-02-20T06:56:53.727Z,95.40
2019-02-20T06:57:26.477Z,95.10
2019-02-20T06:57:59.340Z,95.20
2019-02-20T06:58:31.823Z,95.20
2019-02-20T06:59:04.621Z,95.20
2019-02-20T06:59:37.112Z,95.00
2019-02-20T07:00:10.952Z,94.90
2019-02-20T07:00:43.716Z,94.70
2019-02-20T07:01:16.194Z,94.60
2019-02-20T07:01:49.042Z,94.50
2019-02-20T07:02:21.918Z,94.40
2019-02-20T07:02:54.708Z,94.50
2019-02-20T07:03:27.185Z,94.60
2019-02-20T07:03:59.665Z,94.70
2019-02-20T07:04:32.484Z,94.50
2019-02-20T07:05:44.028Z,94.50
2019-02-20T07:06:47.602Z,94.60